createdAt,value
2023-10-08T00:00:53.682Z,15.72
2023-10-08T00:06:12.785Z,15.71
2023-10-08T00:11:31.736Z,15.74
2023-10-08T00:16:51.062Z,15.71
2023-10-08T00:22:10.751Z,15.72
2023-10-08T00:27:29.938Z,15.69
2023-10-08T00:32:49.473Z,15.69
2023-10-08T00:38:08.921Z,15.69
2023-10-08T00:43:28.236Z,15.69
2023-10-08T00:48:47.707Z,15.67
2023-10-08T00:54:06.905Z,15.69
2023-10-08T00:59:26.029Z,15.67
2023-10-08T01:04:44.827Z,15.67
2023-10-08T01:10:04.344Z,15.68
2023-10-08T01:15:23.088Z,15.65
2023-10-08T01:20:42.759Z,15.65
2023-10-08T01:26:01.604Z,15.64
2023-10-08T01:31:20.805Z,15.65
2023-10-08T01:36:40.316Z,15.64
2023-10-08T01:41:59.555Z,15.65
2023-10-08T01:47:18.402Z,15.62
2023-10-08T01:52:37.970Z,15.62
2023-10-08T02:03:16.841Z,15.64
2023-10-08T02:08:36.166Z,15.62
2023-10-08T02:13:55.470Z,15.62
2023-10-08T02:19:14.964Z,15.59
2023-10-08T02:24:34.239Z,15.62
2023-10-08T02:29:53.361Z,15.61
2023-10-08T02:35:12.064Z,15.59
2023-10-08T02:45:50.981Z,15.59
2023-10-08T02:51:10.004Z,15.57
2023-10-08T02:56:29.387Z,15.59
2023-10-08T03:01:48.554Z,15.57
2023-10-08T03:07:08.126Z,15.58
2023-10-08T03:12:27.159Z,15.57
2023-10-08T03:17:46.044Z,15.57
2023-10-08T03:28:24.711Z,15.57
2023-10-08T03:33:43.809Z,15.55
2023-10-08T03:39:03.012Z,15.54
2023-10-08T03:44:22.588Z,15.53
2023-10-08T03:55:01.681Z,15.53
2023-10-08T04:00:20.743Z,15.5
2023-10-08T04:05:40.411Z,15.5
2023-10-08T04:10:59.517Z,15.48
2023-10-08T04:16:18.344Z,15.48
2023-10-08T04:26:56.930Z,15.48
2023-10-08T04:37:35.297Z,15.46
2023-10-08T04:42:54.481Z,15.46
2023-10-08T04:48:13.563Z,15.43
2023-10-08T04:53:33.588Z,15.41
2023-10-08T04:58:52.096Z,15.41
2023-10-08T05:09:30.357Z,15.37
2023-10-08T05:20:08.572Z,15.38
2023-10-08T05:25:27.173Z,15.34
2023-10-08T05:30:46.671Z,15.34
2023-10-08T05:36:06.164Z,15.36
2023-10-08T05:41:25.206Z,15.31
2023-10-08T05:46:44.118Z,15.34
2023-10-08T05:52:03.733Z,15.31
2023-10-08T06:02:42.208Z,15.33
2023-10-08T06:08:01.884Z,15.31
2023-10-08T06:13:21.547Z,15.31
2023-10-08T06:18:40.831Z,15.33
2023-10-08T06:24:00.108Z,15.34
2023-10-08T06:29:19.112Z,15.33
2023-10-08T06:34:38.171Z,15.33
2023-10-08T06:45:16.045Z,15.37
2023-10-08T06:50:35.341Z,15.34
2023-10-08T06:55:54.394Z,15.37
2023-10-08T07:01:13.245Z,15.36
2023-10-08T07:06:33.876Z,15.4
2023-10-08T07:11:52.166Z,15.4
2023-10-08T07:17:11.767Z,15.41
2023-10-08T07:27:50.430Z,15.51
2023-10-08T07:38:28.263Z,15.61
2023-10-08T07:43:47.370Z,15.65
2023-10-08T07:54:25.460Z,15.71
2023-10-08T07:59:44.783Z,15.74
2023-10-08T08:05:04.272Z,15.78
2023-10-08T08:10:24.000Z,15.82
2023-10-08T08:15:44.208Z,15.89
2023-10-08T08:26:21.711Z,16.04
2023-10-08T08:31:41.049Z,16.11
2023-10-08T08:37:00.232Z,16.19
2023-10-08T08:42:19.472Z,16.23
2023-10-08T08:47:38.988Z,16.33
2023-10-08T08:52:58.526Z,16.41
2023-10-08T08:58:16.968Z,16.45
2023-10-08T09:08:56.111Z,16.52
2023-10-08T09:14:15.365Z,16.6
2023-10-08T09:19:34.906Z,16.62
2023-10-08T09:24:54.394Z,16.67
2023-10-08T09:30:14.078Z,16.71
2023-10-08T09:35:33.407Z,16.77
2023-10-08T09:40:53.022Z,16.79
2023-10-08T09:51:31.306Z,16.87
2023-10-08T09:56:50.636Z,16.95
2023-10-08T10:07:28.365Z,17.07
2023-10-08T10:12:47.980Z,17.14
2023-10-08T10:18:07.252Z,17.24
2023-10-08T10:23:25.847Z,17.35
2023-10-08T10:28:45.007Z,17.46
2023-10-08T10:34:03.798Z,17.6
2023-10-08T10:39:22.886Z,17.75
2023-10-08T10:50:01.558Z,17.99
2023-10-08T11:00:40.318Z,18.16
2023-10-08T11:05:59.398Z,18.26
2023-10-08T11:11:18.822Z,18.36
2023-10-08T11:16:37.549Z,18.46
2023-10-08T11:21:56.259Z,18.56
2023-10-08T11:32:34.520Z,18.7
2023-10-08T11:43:13.098Z,18.87
2023-10-08T11:48:32.263Z,18.89
2023-10-08T11:59:10.474Z,19.01
2023-10-08T12:04:29.406Z,19.1
2023-10-08T12:09:48.748Z,19.12
2023-10-08T12:15:08.128Z,19.18
2023-10-08T12:20:27.206Z,19.23
2023-10-08T12:31:05.566Z,19.31
2023-10-08T12:36:24.973Z,19.37
2023-10-08T12:41:44.230Z,19.43
2023-10-08T12:47:03.697Z,19.46
2023-10-08T12:52:22.501Z,19.54
2023-10-08T12:57:41.253Z,19.64
2023-10-08T13:03:00.484Z,19.69
2023-10-08T13:08:19.713Z,19.76
2023-10-08T13:13:39.064Z,19.81
2023-10-08T13:18:58.458Z,19.83
2023-10-08T13:24:25.626Z,19.85
2023-10-08T13:29:36.072Z,19.92
2023-10-08T13:34:57.077Z,19.95
2023-10-08T13:40:15.246Z,19.99
2023-10-08T13:45:34.260Z,19.99
2023-10-08T13:50:53.124Z,20
2023-10-08T13:56:12.490Z,20.04
2023-10-08T14:06:50.765Z,20.04
2023-10-08T14:12:09.614Z,20.04
2023-10-08T14:17:28.977Z,20.06
2023-10-08T14:22:48.567Z,20.08
2023-10-08T14:28:07.890Z,20.08
2023-10-08T14:33:26.968Z,20.04
2023-10-08T14:38:45.409Z,20.06
2023-10-08T14:49:24.311Z,20
2023-10-08T14:54:43.723Z,19.98
2023-10-08T15:00:27.931Z,20.09
2023-10-08T15:05:47.274Z,19.95
2023-10-08T15:11:06.558Z,19.95
2023-10-08T15:21:44.092Z,19.89
2023-10-08T15:27:03.645Z,19.89
2023-10-08T15:32:22.546Z,19.83
2023-10-08T15:37:41.675Z,19.83
2023-10-08T15:43:00.307Z,19.79
2023-10-08T15:48:19.316Z,19.76
2023-10-08T15:53:38.109Z,19.7
2023-10-08T15:58:57.484Z,19.65
2023-10-08T16:04:16.766Z,19.64
2023-10-08T16:09:35.750Z,19.58
2023-10-08T16:14:55.448Z,19.53
2023-10-08T16:20:15.731Z,19.46
2023-10-08T16:30:53.087Z,19.41
2023-10-08T16:36:12.168Z,19.37
2023-10-08T16:41:31.432Z,19.32
2023-10-08T16:46:50.499Z,19.28
2023-10-08T16:52:09.270Z,19.25
2023-10-08T17:02:47.862Z,19.17
2023-10-08T17:13:26.434Z,19.03
2023-10-08T17:18:45.148Z,18.99
2023-10-08T17:24:04.479Z,18.94
2023-10-08T17:29:23.774Z,18.9
2023-10-08T17:34:42.862Z,18.87
2023-10-08T17:40:02.163Z,18.79
2023-10-08T17:45:21.108Z,18.73
2023-10-08T17:50:40.218Z,18.7
2023-10-08T17:55:59.373Z,18.62
2023-10-08T18:01:19.082Z,18.59
2023-10-08T18:06:38.757Z,18.53
2023-10-08T18:11:58.834Z,18.49
2023-10-08T18:17:17.143Z,18.45
2023-10-08T18:22:36.300Z,18.39
2023-10-08T18:27:55.471Z,18.35
2023-10-08T18:33:14.225Z,18.29
2023-10-08T18:38:33.650Z,18.25
2023-10-08T18:43:52.824Z,18.21
2023-10-08T18:49:12.115Z,18.17
2023-10-08T18:54:30.824Z,18.12
2023-10-08T18:59:50.912Z,18.09
2023-10-08T19:05:08.764Z,18.04
2023-10-08T19:10:28.213Z,17.99
2023-10-08T19:15:47.563Z,17.95
2023-10-08T19:21:06.783Z,17.91
2023-10-08T19:26:25.717Z,17.87
2023-10-08T19:31:45.298Z,17.84
2023-10-08T19:37:04.560Z,17.79
2023-10-08T19:42:24.169Z,17.74
2023-10-08T19:47:43.809Z,17.7
2023-10-08T19:53:03.161Z,17.7
2023-10-08T19:58:22.712Z,17.62
2023-10-08T20:03:41.800Z,17.61
2023-10-08T20:09:00.886Z,17.58
2023-10-08T20:19:39.337Z,17.5
2023-10-08T20:30:17.745Z,17.41
2023-10-08T20:35:36.447Z,17.37
2023-10-08T20:40:55.268Z,17.34
2023-10-08T20:46:14.439Z,17.28
2023-10-08T20:51:33.282Z,17.28
2023-10-08T21:02:12.208Z,17.17
2023-10-08T21:12:49.975Z,17.07
2023-10-08T21:18:08.940Z,17.04
2023-10-08T21:23:28.154Z,17
2023-10-08T21:28:46.968Z,16.96
2023-10-08T21:34:06.010Z,16.94
2023-10-08T21:44:43.739Z,16.86
2023-10-08T21:50:02.819Z,16.83
2023-10-08T21:55:22.187Z,16.77
2023-10-08T22:00:41.409Z,16.75
2023-10-08T22:06:00.432Z,16.7
2023-10-08T22:11:19.732Z,16.66
2023-10-08T22:16:38.592Z,16.62
2023-10-08T22:21:58.203Z,16.57
2023-10-08T22:27:17.072Z,16.54
2023-10-08T22:32:36.521Z,16.49
2023-10-08T22:37:55.297Z,16.45
2023-10-08T22:43:14.385Z,16.41
2023-10-08T22:48:33.344Z,16.36
2023-10-08T22:53:52.585Z,16.33
2023-10-08T22:59:11.818Z,16.29
2023-10-08T23:04:31.127Z,16.21
2023-10-08T23:09:49.960Z,16.2
2023-10-08T23:15:08.699Z,16.16
2023-10-08T23:25:47.496Z,16.08
2023-10-08T23:31:06.968Z,16.04
2023-10-08T23:36:26.628Z,16.01
2023-10-08T23:41:46.162Z,15.95
2023-10-08T23:52:24.751Z,15.89
2023-10-08T23:57:43.517Z,15.85
